Time;durP1;ratioP1;P1;durP2;ratioP2;P2;SDS_P1;SDS_P2;PMS_P1;PMS_P2;Temp;Humidity;BMP_temperature;BMP_pressure;BME280_temperature;BME280_humidity;BME280_pressure;Samples;Min_cycle;Max_cycle;Signal;HPM_P1;HPM_P2
2023/09/06 00:02:07;;;;;;;;;;;21.30;74.10;;;;;;5050037;28;1902;-69
2023/09/06 00:04:33;;;;;;;;;;;21.30;74.10;;;;;;5050054;28;1161;-68
2023/09/06 00:06:59;;;;;;;;;;;21.30;74.00;;;;;;5050062;28;825;-68
2023/09/06 00:09:25;;;;;;;;;;;21.30;74.10;;;;;;5044265;28;931;-68
2023/09/06 00:11:50;;;;;;;;;;;21.30;74.10;;;;;;5044749;28;1393;-68
2023/09/06 00:14:16;;;;;;;;;;;21.30;74.10;;;;;;5050208;28;1042;-68
2023/09/06 00:16:42;;;;;;;;;;;21.30;74.10;;;;;;5050036;28;885;-68
2023/09/06 00:19:07;;;;;;;;;;;21.30;74.00;;;;;;5049647;28;1400;-68
2023/09/06 00:21:37;;;;;;;;;;;21.30;74.10;;;;;;5049891;28;1942;-67
2023/09/06 00:24:03;;;;;;;;;;;21.30;74.10;;;;;;5050331;28;954;-68
2023/09/06 00:26:29;;;;;;;;;;;21.30;74.10;;;;;;5050672;28;899;-69
2023/09/06 00:28:54;;;;;;;;;;;21.30;74.10;;;;;;5050643;28;1331;-69
2023/09/06 00:31:20;;;;;;;;;;;21.30;74.10;;;;;;5050569;28;1285;-69
2023/09/06 00:33:45;;;;;;;;;;;21.30;74.10;;;;;;5050185;28;967;-69
2023/09/06 00:36:11;;;;;;;;;;;21.30;74.10;;;;;;5045488;28;877;-68
2023/09/06 00:38:38;;;;;;;;;;;21.30;74.10;;;;;;5041237;28;986;-67
2023/09/06 00:41:04;;;;;;;;;;;21.30;74.10;;;;;;5049495;28;1288;-68
2023/09/06 00:43:30;;;;;;;;;;;21.30;74.10;;;;;;5049380;28;1894;-69
2023/09/06 00:45:55;;;;;;;;;;;21.30;74.10;;;;;;5049681;28;919;-67
2023/09/06 00:48:21;;;;;;;;;;;21.30;74.10;;;;;;5049003;28;820;-67
2023/09/06 00:50:50;;;;;;;;;;;21.30;74.10;;;;;;5049915;28;1271;-68
2023/09/06 00:53:16;;;;;;;;;;;21.30;74.10;;;;;;5049478;28;891;-67
2023/09/06 00:55:41;;;;;;;;;;;21.30;74.10;;;;;;5048584;28;911;-68
2023/09/06 00:58:07;;;;;;;;;;;21.30;74.10;;;;;;5047781;28;876;-69
2023/09/06 01:00:33;;;;;;;;;;;21.30;74.10;;;;;;5043151;28;1874;-69
2023/09/06 01:02:58;;;;;;;;;;;21.30;74.10;;;;;;5049596;28;1989;-70
2023/09/06 01:05:24;;;;;;;;;;;21.30;74.10;;;;;;5049980;28;902;-68
2023/09/06 01:08:01;;;;;;;;;;;21.30;74.10;;;;;;5043882;28;1204;-69
2023/09/06 01:10:26;;;;;;;;;;;21.30;74.10;;;;;;5041705;28;1283;-69
2023/09/06 01:12:55;;;;;;;;;;;21.30;74.10;;;;;;5049555;28;880;-68
2023/09/06 01:15:23;;;;;;;;;;;21.30;74.10;;;;;;5049221;28;829;-68
2023/09/06 01:17:50;;;;;;;;;;;21.30;74.10;;;;;;5042215;28;910;-69
2023/09/06 01:20:19;;;;;;;;;;;21.30;74.10;;;;;;5031411;28;933;-69
2023/09/06 01:22:51;;;;;;;;;;;21.30;74.20;;;;;;5041419;28;1902;-69
2023/09/06 01:25:16;;;;;;;;;;;21.30;74.10;;;;;;5041445;28;1329;-67
2023/09/06 01:27:42;;;;;;;;;;;21.30;74.20;;;;;;5044439;28;1376;-68
2023/09/06 01:30:08;;;;;;;;;;;21.30;74.10;;;;;;5044492;28;927;-68
2023/09/06 01:32:34;;;;;;;;;;;21.30;74.20;;;;;;5053014;28;1357;-69
2023/09/06 01:35:00;;;;;;;;;;;21.30;74.20;;;;;;5053220;28;860;-68
2023/09/06 01:37:25;;;;;;;;;;;21.30;74.10;;;;;;5053104;28;1391;-68
2023/09/06 01:39:50;;;;;;;;;;;21.30;74.20;;;;;;5052610;28;1435;-68
2023/09/06 01:42:22;;;;;;;;;;;21.30;74.20;;;;;;5052850;28;1897;-67
2023/09/06 01:44:48;;;;;;;;;;;21.30;74.20;;;;;;5053224;28;927;-67
2023/09/06 01:47:13;;;;;;;;;;;21.20;74.10;;;;;;5053116;28;912;-67
2023/09/06 01:49:39;;;;;;;;;;;21.30;74.20;;;;;;5052207;28;801;-67
2023/09/06 01:52:05;;;;;;;;;;;21.30;74.20;;;;;;5052600;28;1359;-67
2023/09/06 01:54:30;;;;;;;;;;;21.30;74.20;;;;;;5052564;28;872;-67
2023/09/06 01:56:56;;;;;;;;;;;21.30;74.20;;;;;;5052780;28;888;-68
2023/09/06 01:59:21;;;;;;;;;;;21.20;74.20;;;;;;5052007;28;859;-68
2023/09/06 02:01:53;;;;;;;;;;;21.30;74.20;;;;;;5043976;28;1982;-68
2023/09/06 02:04:19;;;;;;;;;;;21.20;74.10;;;;;;5051759;28;880;-68
2023/09/06 02:06:44;;;;;;;;;;;21.30;74.20;;;;;;5052516;28;863;-67
2023/09/06 02:09:10;;;;;;;;;;;21.30;74.20;;;;;;5052091;28;1348;-68
2023/09/06 02:11:35;;;;;;;;;;;21.30;74.20;;;;;;5052994;28;1222;-68
2023/09/06 02:14:00;;;;;;;;;;;21.20;74.10;;;;;;5053005;28;792;-67
2023/09/06 02:16:26;;;;;;;;;;;21.20;74.10;;;;;;5053838;28;954;-68
2023/09/06 02:18:52;;;;;;;;;;;21.20;74.10;;;;;;5051923;28;908;-68
2023/09/06 02:21:17;;;;;;;;;;;21.20;74.10;;;;;;5052467;28;1346;-67
2023/09/06 02:23:43;;;;;;;;;;;21.20;74.10;;;;;;5052446;28;910;-67
2023/09/06 02:26:08;;;;;;;;;;;21.20;74.10;;;;;;5052507;28;1295;-67
2023/09/06 02:28:35;;;;;;;;;;;21.30;74.20;;;;;;5051666;28;964;-67
2023/09/06 02:31:00;;;;;;;;;;;21.30;74.20;;;;;;5051329;28;1224;-68
2023/09/06 02:33:28;;;;;;;;;;;21.30;74.20;;;;;;5052663;28;808;-68
2023/09/06 02:35:53;;;;;;;;;;;21.20;74.10;;;;;;5051368;28;871;-68
2023/09/06 02:38:19;;;;;;;;;;;21.30;74.20;;;;;;5051278;28;816;-68
2023/09/06 02:40:44;;;;;;;;;;;21.30;74.20;;;;;;5051005;28;1357;-68
2023/09/06 02:43:13;;;;;;;;;;;21.30;74.20;;;;;;5052011;28;1922;-67
2023/09/06 02:45:39;;;;;;;;;;;21.20;74.10;;;;;;5045759;28;863;-69
2023/09/06 02:48:11;;;;;;;;;;;21.20;74.10;;;;;;5041265;28;987;-68
2023/09/06 02:50:37;;;;;;;;;;;21.30;74.20;;;;;;5051559;28;1346;-68
2023/09/06 02:53:03;;;;;;;;;;;21.20;74.10;;;;;;5051931;28;1018;-68
2023/09/06 02:55:29;;;;;;;;;;;21.20;74.10;;;;;;5051802;28;878;-69
2023/09/06 02:57:55;;;;;;;;;;;21.30;74.20;;;;;;5051001;28;903;-67
2023/09/06 03:02:49;;;;;;;;;;;21.20;74.10;;;;;;5046022;28;1910;-69
2023/09/06 03:05:17;;;;;;;;;;;21.20;74.20;;;;;;5052298;28;774;-69
2023/09/06 03:07:48;;;;;;;;;;;21.20;74.20;;;;;;5051438;28;1423;-68
2023/09/06 03:10:15;;;;;;;;;;;21.20;74.20;;;;;;5045660;28;915;-69
2023/09/06 03:12:41;;;;;;;;;;;21.20;74.20;;;;;;5051976;28;1256;-68
2023/09/06 03:15:10;;;;;;;;;;;21.20;74.20;;;;;;5051599;28;959;-68
2023/09/06 03:17:36;;;;;;;;;;;21.20;74.20;;;;;;5051620;28;820;-67
2023/09/06 03:20:18;;;;;;;;;;;21.30;74.20;;;;;;5050939;28;1302;-69
2023/09/06 03:22:46;;;;;;;;;;;21.20;74.20;;;;;;5050281;28;1945;-69
2023/09/06 03:25:14;;;;;;;;;;;21.20;74.20;;;;;;5051340;28;934;-69
2023/09/06 03:27:39;;;;;;;;;;;21.30;74.20;;;;;;5049911;28;1339;-69
2023/09/06 03:30:08;;;;;;;;;;;21.20;74.20;;;;;;5052917;28;907;-69
2023/09/06 03:32:34;;;;;;;;;;;21.20;74.20;;;;;;5051662;28;1370;-69
2023/09/06 03:35:00;;;;;;;;;;;21.20;74.20;;;;;;5050875;28;861;-69
2023/09/06 03:37:28;;;;;;;;;;;21.20;74.20;;;;;;5050898;28;847;-69
2023/09/06 03:39:54;;;;;;;;;;;21.20;74.20;;;;;;5044529;28;1236;-69
2023/09/06 03:42:20;;;;;;;;;;;21.20;74.20;;;;;;5050615;28;1977;-69
2023/09/06 03:44:46;;;;;;;;;;;21.20;74.20;;;;;;5028328;28;955;-70
2023/09/06 03:47:15;;;;;;;;;;;21.20;74.20;;;;;;5045835;28;871;-69
2023/09/06 03:49:41;;;;;;;;;;;21.30;74.30;;;;;;5049796;28;1063;-69
2023/09/06 03:52:07;;;;;;;;;;;21.30;74.30;;;;;;5045460;28;1309;-69
2023/09/06 03:54:34;;;;;;;;;;;21.20;74.20;;;;;;5050628;28;824;-68
2023/09/06 03:57:03;;;;;;;;;;;21.20;74.20;;;;;;5041910;28;946;-68
2023/09/06 03:59:28;;;;;;;;;;;21.20;74.20;;;;;;5042526;28;821;-69
2023/09/06 04:01:55;;;;;;;;;;;21.20;74.20;;;;;;5049853;28;1898;-69
2023/09/06 04:04:21;;;;;;;;;;;21.20;74.20;;;;;;5051738;28;826;-68
2023/09/06 04:06:47;;;;;;;;;;;21.30;74.30;;;;;;5050524;28;804;-68
2023/09/06 04:09:13;;;;;;;;;;;21.20;74.20;;;;;;5048444;28;880;-68
2023/09/06 04:11:41;;;;;;;;;;;21.20;74.20;;;;;;5050222;28;1278;-68
2023/09/06 04:14:10;;;;;;;;;;;21.20;74.20;;;;;;5050200;28;851;-68
2023/09/06 04:16:38;;;;;;;;;;;21.20;74.20;;;;;;5044874;28;860;-68
2023/09/06 04:19:05;;;;;;;;;;;21.20;74.20;;;;;;5049291;28;1372;-68
2023/09/06 04:21:30;;;;;;;;;;;21.30;74.30;;;;;;5050192;28;1961;-68
2023/09/06 04:23:56;;;;;;;;;;;21.30;74.30;;;;;;5049859;28;898;-68
2023/09/06 04:26:22;;;;;;;;;;;21.20;74.30;;;;;;5050163;28;836;-68
2023/09/06 04:28:47;;;;;;;;;;;21.20;74.20;;;;;;5049353;28;1245;-69
2023/09/06 04:31:13;;;;;;;;;;;21.20;74.30;;;;;;5042713;28;1390;-69
2023/09/06 04:33:39;;;;;;;;;;;21.20;74.20;;;;;;5050085;28;817;-68
2023/09/06 04:36:04;;;;;;;;;;;21.20;74.30;;;;;;5049980;28;833;-68
2023/09/06 04:38:31;;;;;;;;;;;21.20;74.30;;;;;;5049112;28;1322;-68
2023/09/06 04:40:56;;;;;;;;;;;21.20;74.30;;;;;;5048104;28;1525;-68
2023/09/06 04:43:22;;;;;;;;;;;21.20;74.30;;;;;;5044759;28;1967;-67
2023/09/06 04:45:48;;;;;;;;;;;21.20;74.30;;;;;;5050005;28;883;-68
2023/09/06 04:48:17;;;;;;;;;;;21.20;74.30;;;;;;5049141;28;1015;-68
2023/09/06 04:50:43;;;;;;;;;;;21.20;74.30;;;;;;5042443;28;1260;-68
2023/09/06 04:53:08;;;;;;;;;;;21.20;74.30;;;;;;5045469;28;833;-68
2023/09/06 04:55:35;;;;;;;;;;;21.20;74.30;;;;;;5049779;28;874;-68
2023/09/06 04:58:01;;;;;;;;;;;21.20;74.30;;;;;;5043761;28;961;-68
2023/09/06 05:00:32;;;;;;;;;;;21.20;74.30;;;;;;5042167;28;1349;-68
2023/09/06 05:02:58;;;;;;;;;;;21.20;74.30;;;;;;5044980;28;1942;-68
2023/09/06 05:05:24;;;;;;;;;;;21.20;74.30;;;;;;5054026;28;1054;-68
2023/09/06 05:07:49;;;;;;;;;;;21.20;74.30;;;;;;5053121;28;1530;-68
2023/09/06 05:10:15;;;;;;;;;;;21.20;74.30;;;;;;5053665;28;883;-68
2023/09/06 05:12:40;;;;;;;;;;;21.20;74.30;;;;;;5035851;28;1342;-68
2023/09/06 05:15:06;;;;;;;;;;;21.20;74.30;;;;;;5053469;28;893;-69
2023/09/06 05:17:35;;;;;;;;;;;21.20;74.30;;;;;;5048442;28;1876;-68
2023/09/06 05:20:19;;;;;;;;;;;21.20;74.30;;;;;;5046610;28;1011;-68
2023/09/06 05:22:44;;;;;;;;;;;21.20;74.30;;;;;;5052774;28;1910;-68
2023/09/06 05:25:10;;;;;;;;;;;21.20;74.30;;;;;;5053489;28;1022;-68
2023/09/06 05:27:35;;;;;;;;;;;21.20;74.30;;;;;;5053541;28;1261;-68
2023/09/06 05:30:01;;;;;;;;;;;21.20;74.30;;;;;;5052821;28;796;-68
2023/09/06 05:32:26;;;;;;;;;;;21.20;74.30;;;;;;5053436;28;1337;-68
2023/09/06 05:34:52;;;;;;;;;;;21.20;74.30;;;;;;5053276;28;1089;-69
2023/09/06 05:37:17;;;;;;;;;;;21.20;74.30;;;;;;5052974;28;829;-69
2023/09/06 05:39:43;;;;;;;;;;;21.20;74.30;;;;;;5052350;28;1243;-69
2023/09/06 05:42:08;;;;;;;;;;;21.20;74.30;;;;;;5053108;28;1902;-69
2023/09/06 05:44:34;;;;;;;;;;;21.20;74.30;;;;;;5044929;28;855;-69
2023/09/06 05:46:59;;;;;;;;;;;21.20;74.30;;;;;;5053516;28;820;-69
2023/09/06 05:49:24;;;;;;;;;;;21.20;74.40;;;;;;5052979;28;922;-69
2023/09/06 05:51:50;;;;;;;;;;;21.20;74.40;;;;;;5054699;28;1350;-69
2023/09/06 05:54:16;;;;;;;;;;;21.20;74.40;;;;;;5053044;28;931;-69
2023/09/06 05:56:41;;;;;;;;;;;21.20;74.40;;;;;;5053056;28;915;-68
2023/09/06 05:59:07;;;;;;;;;;;21.20;74.30;;;;;;5052244;28;860;-69
2023/09/06 06:01:32;;;;;;;;;;;21.20;75.10;;;;;;5052632;28;1914;-69
2023/09/06 06:03:58;;;;;;;;;;;21.20;74.30;;;;;;5052082;28;836;-68
2023/09/06 06:06:23;;;;;;;;;;;21.20;74.30;;;;;;5052962;28;923;-68
2023/09/06 06:08:49;;;;;;;;;;;21.20;74.40;;;;;;5052051;28;887;-68
2023/09/06 06:11:15;;;;;;;;;;;21.20;74.40;;;;;;5051999;28;1254;-68
2023/09/06 06:13:40;;;;;;;;;;;21.20;74.40;;;;;;5051802;28;1278;-68
2023/09/06 06:16:06;;;;;;;;;;;21.20;74.40;;;;;;5053034;28;833;-68
2023/09/06 06:18:32;;;;;;;;;;;21.20;74.40;;;;;;5051881;28;1378;-68
2023/09/06 06:20:58;;;;;;;;;;;21.20;74.40;;;;;;5053293;28;1349;-68
2023/09/06 06:23:24;;;;;;;;;;;21.20;74.40;;;;;;5053227;28;1959;-68
2023/09/06 06:25:49;;;;;;;;;;;21.20;74.40;;;;;;5052449;28;796;-69
2023/09/06 06:28:15;;;;;;;;;;;21.20;74.40;;;;;;5051390;28;1346;-69
2023/09/06 06:30:41;;;;;;;;;;;21.20;74.40;;;;;;5052495;28;1263;-69
2023/09/06 06:33:06;;;;;;;;;;;21.20;74.40;;;;;;5052106;28;852;-69
2023/09/06 06:35:32;;;;;;;;;;;21.20;74.40;;;;;;5052449;28;808;-69
2023/09/06 06:37:58;;;;;;;;;;;21.20;74.40;;;;;;5050817;28;903;-68
2023/09/06 06:40:26;;;;;;;;;;;21.20;74.40;;;;;;5050412;28;1242;-68
2023/09/06 06:42:51;;;;;;;;;;;21.20;74.40;;;;;;5050731;28;1899;-69
2023/09/06 06:45:17;;;;;;;;;;;21.20;74.40;;;;;;5045627;28;872;-69
2023/09/06 06:47:42;;;;;;;;;;;21.20;74.40;;;;;;5051572;28;904;-69
2023/09/06 06:50:08;;;;;;;;;;;21.20;74.50;;;;;;5051381;28;1071;-69
2023/09/06 06:52:36;;;;;;;;;;;21.20;74.40;;;;;;5051391;28;1216;-69
2023/09/06 06:55:01;;;;;;;;;;;21.20;74.50;;;;;;5051203;28;1198;-69
2023/09/06 06:57:27;;;;;;;;;;;21.20;74.40;;;;;;5051576;28;866;-69
2023/09/06 06:59:52;;;;;;;;;;;21.20;74.40;;;;;;5051044;28;836;-69
2023/09/06 07:02:18;;;;;;;;;;;21.20;74.40;;;;;;5051312;28;1934;-67
2023/09/06 07:04:43;;;;;;;;;;;21.20;74.40;;;;;;5051920;28;894;-67
2023/09/06 07:07:10;;;;;;;;;;;21.20;74.50;;;;;;5051714;28;916;-67
2023/09/06 07:09:36;;;;;;;;;;;21.20;74.40;;;;;;5050733;28;808;-67
2023/09/06 07:12:01;;;;;;;;;;;21.20;74.50;;;;;;5045010;28;1306;-67
2023/09/06 07:14:26;;;;;;;;;;;21.20;74.40;;;;;;5051125;28;1600;-67
2023/09/06 07:16:52;;;;;;;;;;;21.20;74.50;;;;;;5051839;28;1108;-67
2023/09/06 07:19:17;;;;;;;;;;;21.20;74.50;;;;;;5043981;28;1103;-67
2023/09/06 07:21:44;;;;;;;;;;;21.20;74.50;;;;;;5051218;28;1973;-66
2023/09/06 07:24:10;;;;;;;;;;;21.20;74.50;;;;;;5051046;28;899;-66
2023/09/06 07:26:35;;;;;;;;;;;21.20;74.50;;;;;;5050558;28;874;-66
2023/09/06 07:29:01;;;;;;;;;;;21.20;74.50;;;;;;5044722;28;947;-66
2023/09/06 07:31:26;;;;;;;;;;;21.20;74.50;;;;;;5051439;28;1263;-66
2023/09/06 07:33:52;;;;;;;;;;;21.20;74.50;;;;;;5051827;28;1378;-67
2023/09/06 07:36:18;;;;;;;;;;;21.20;74.50;;;;;;5051923;28;813;-68
2023/09/06 07:38:44;;;;;;;;;;;21.20;74.50;;;;;;5050486;28;827;-67
2023/09/06 07:41:09;;;;;;;;;;;21.20;74.50;;;;;;5050615;28;1347;-66
2023/09/06 07:43:35;;;;;;;;;;;21.20;74.50;;;;;;5050953;28;1902;-66
2023/09/06 07:46:01;;;;;;;;;;;21.20;74.50;;;;;;5050396;28;1038;-66
2023/09/06 07:48:28;;;;;;;;;;;21.20;74.50;;;;;;5050159;28;923;-66
2023/09/06 07:50:54;;;;;;;;;;;21.20;74.50;;;;;;5050579;28;1365;-66
2023/09/06 07:53:20;;;;;;;;;;;21.20;74.50;;;;;;5050875;28;1385;-66
2023/09/06 07:55:46;;;;;;;;;;;21.20;74.50;;;;;;5043974;28;951;-67
2023/09/06 07:58:11;;;;;;;;;;;21.20;74.50;;;;;;5042179;28;915;-68
2023/09/06 08:00:37;;;;;;;;;;;21.20;74.50;;;;;;5048991;28;1353;-67
2023/09/06 08:03:02;;;;;;;;;;;21.20;74.40;;;;;;5050396;28;1991;-68
2023/09/06 08:05:28;;;;;;;;;;;21.20;74.40;;;;;;5050322;28;1104;-67
2023/09/06 08:07:54;;;;;;;;;;;21.20;74.40;;;;;;5049756;28;853;-68
2023/09/06 08:10:19;;;;;;;;;;;21.20;74.40;;;;;;5050411;28;787;-68
2023/09/06 08:12:44;;;;;;;;;;;21.20;74.40;;;;;;5050086;28;1318;-67
2023/09/06 08:15:10;;;;;;;;;;;21.20;74.40;;;;;;5050146;28;871;-67
2023/09/06 08:17:35;;;;;;;;;;;21.20;74.40;;;;;;5050437;28;817;-67
2023/09/06 08:20:01;;;;;;;;;;;21.20;74.40;;;;;;5049701;28;1294;-67
2023/09/06 08:22:26;;;;;;;;;;;21.30;74.50;;;;;;5050002;28;1914;-66
2023/09/06 08:24:52;;;;;;;;;;;21.20;74.50;;;;;;5050191;28;862;-66
2023/09/06 08:27:17;;;;;;;;;;;21.20;74.50;;;;;;5050074;28;1351;-66
2023/09/06 08:29:43;;;;;;;;;;;21.30;74.50;;;;;;5049244;28;1003;-66
2023/09/06 08:32:08;;;;;;;;;;;21.20;74.50;;;;;;5049807;28;1256;-66
2023/09/06 08:34:34;;;;;;;;;;;21.20;74.50;;;;;;5050246;28;775;-66
2023/09/06 08:36:59;;;;;;;;;;;21.20;74.50;;;;;;5050142;28;910;-67
2023/09/06 08:39:25;;;;;;;;;;;21.20;74.50;;;;;;5049284;28;1240;-66
2023/09/06 08:41:50;;;;;;;;;;;21.20;74.50;;;;;;5049853;28;1905;-66
2023/09/06 08:44:20;;;;;;;;;;;21.20;74.60;;;;;;5049727;28;880;-66
2023/09/06 08:46:46;;;;;;;;;;;21.20;74.50;;;;;;5048736;28;922;-66
2023/09/06 08:49:11;;;;;;;;;;;21.20;74.50;;;;;;5046085;28;859;-66
2023/09/06 08:51:37;;;;;;;;;;;21.20;74.50;;;;;;5042493;28;1185;-67
2023/09/06 08:54:08;;;;;;;;;;;21.20;74.60;;;;;;5044458;28;817;-67
2023/09/06 08:56:34;;;;;;;;;;;21.20;74.50;;;;;;5044219;28;967;-67
2023/09/06 08:58:59;;;;;;;;;;;21.20;74.50;;;;;;5044838;28;1131;-67
2023/09/06 09:01:25;;;;;;;;;;;21.20;74.50;;;;;;5049326;28;1303;-67
2023/09/06 09:03:51;;;;;;;;;;;21.30;74.50;;;;;;5047640;28;1945;-66
2023/09/06 09:06:16;;;;;;;;;;;21.30;74.60;;;;;;5047159;28;1004;-67
2023/09/06 09:08:42;;;;;;;;;;;21.20;74.50;;;;;;5044797;28;915;-68
2023/09/06 09:11:14;;;;;;;;;;;21.20;74.50;;;;;;5049627;28;1342;-68
2023/09/06 09:13:40;;;;;;;;;;;21.20;74.50;;;;;;5049536;28;917;-69
2023/09/06 09:16:06;;;;;;;;;;;21.20;74.50;;;;;;5049479;28;857;-68
2023/09/06 09:18:31;;;;;;;;;;;21.20;74.50;;;;;;5048283;28;1036;-68
2023/09/06 09:20:57;;;;;;;;;;;21.20;74.50;;;;;;5050109;28;1275;-68
2023/09/06 09:23:22;;;;;;;;;;;21.20;74.50;;;;;;5041657;28;1957;-69
2023/09/06 09:25:48;;;;;;;;;;;21.30;74.50;;;;;;5049988;28;885;-68
2023/09/06 09:28:14;;;;;;;;;;;21.20;74.50;;;;;;5044428;28;1303;-68
2023/09/06 09:30:40;;;;;;;;;;;21.20;74.50;;;;;;5049494;28;1315;-68
2023/09/06 09:33:05;;;;;;;;;;;21.20;74.40;;;;;;5044151;28;1018;-68
2023/09/06 09:35:31;;;;;;;;;;;21.20;74.40;;;;;;5047995;28;848;-68
2023/09/06 09:37:56;;;;;;;;;;;21.20;74.40;;;;;;5048841;28;895;-68
2023/09/06 09:40:22;;;;;;;;;;;21.30;74.50;;;;;;5043272;28;1264;-68
2023/09/06 09:42:51;;;;;;;;;;;21.20;74.40;;;;;;5042315;28;1985;-68
2023/09/06 09:45:16;;;;;;;;;;;21.20;74.40;;;;;;5049641;28;1013;-68
2023/09/06 09:47:42;;;;;;;;;;;21.20;74.40;;;;;;5049588;28;864;-68
2023/09/06 09:50:08;;;;;;;;;;;21.20;74.40;;;;;;5044577;28;958;-68
2023/09/06 09:52:33;;;;;;;;;;;21.20;74.40;;;;;;5053408;28;1422;-68
2023/09/06 09:54:59;;;;;;;;;;;21.20;74.40;;;;;;5046808;28;858;-68
2023/09/06 09:57:26;;;;;;;;;;;21.20;74.40;;;;;;5047486;28;1246;-68
2023/09/06 09:59:51;;;;;;;;;;;21.20;74.40;;;;;;5045167;28;906;-68
2023/09/06 10:02:17;;;;;;;;;;;21.30;74.50;;;;;;5046062;28;1975;-69
2023/09/06 10:04:42;;;;;;;;;;;21.20;74.40;;;;;;5052392;28;891;-69
2023/09/06 10:07:09;;;;;;;;;;;21.30;74.50;;;;;;5044021;28;828;-69
2023/09/06 10:09:38;;;;;;;;;;;21.30;74.50;;;;;;5052154;28;883;-68
2023/09/06 10:12:03;;;;;;;;;;;21.30;74.50;;;;;;5052445;28;1262;-68
2023/09/06 10:14:29;;;;;;;;;;;21.20;74.40;;;;;;5046884;28;891;-68
2023/09/06 10:16:54;;;;;;;;;;;21.20;74.40;;;;;;5052739;28;832;-68
2023/09/06 10:19:20;;;;;;;;;;;21.20;74.40;;;;;;5045742;28;1054;-69
2023/09/06 10:21:46;;;;;;;;;;;21.20;74.40;;;;;;5046983;28;1915;-68
2023/09/06 10:24:18;;;;;;;;;;;21.20;74.40;;;;;;5044252;28;820;-69
2023/09/06 10:26:45;;;;;;;;;;;21.20;74.40;;;;;;5052430;28;1204;-69
2023/09/06 10:29:10;;;;;;;;;;;21.20;74.40;;;;;;5050093;28;1175;-69
2023/09/06 10:31:45;;;;;;;;;;;21.30;74.40;;;;;;5051220;28;1375;-68
2023/09/06 10:34:12;;;;;;;;;;;21.20;74.40;;;;;;5046619;28;1265;-68
2023/09/06 10:36:57;;;;;;;;;;;21.30;74.40;;;;;;5050923;28;1299;-68
2023/09/06 10:39:26;;;;;;;;;;;21.30;74.40;;;;;;5046549;28;1352;-68
2023/09/06 10:42:13;;;;;;;;;;;21.20;74.40;;;;;;5047268;28;1973;-68
2023/09/06 10:44:54;;;;;;;;;;;21.20;74.40;;;;;;5051979;28;916;-68
2023/09/06 10:47:25;;;;;;;;;;;21.20;74.30;;;;;;5050919;28;979;-68
2023/09/06 10:50:09;;;;;;;;;;;21.30;74.40;;;;;;5044397;28;1003;-68
2023/09/06 10:52:41;;;;;;;;;;;21.30;74.40;;;;;;5050499;28;1282;-68
2023/09/06 10:55:14;;;;;;;;;;;21.30;74.50;;;;;;5051323;28;789;-68
2023/09/06 10:58:16;;;;;;;;;;;21.30;74.40;;;;;;5045283;28;890;-68
2023/09/06 11:00:42;;;;;;;;;;;21.20;74.30;;;;;;5006657;28;1373;-69
2023/09/06 11:03:07;;;;;;;;;;;21.30;74.40;;;;;;5043718;28;1981;-68
2023/09/06 11:05:37;;;;;;;;;;;21.30;74.40;;;;;;5052314;28;805;-68
2023/09/06 11:08:04;;;;;;;;;;;21.30;74.40;;;;;;5044837;28;848;-68
2023/09/06 11:10:29;;;;;;;;;;;21.30;74.40;;;;;;5051934;28;1384;-68
2023/09/06 11:12:55;;;;;;;;;;;21.30;74.40;;;;;;5051643;28;817;-68
2023/09/06 11:15:21;;;;;;;;;;;21.30;74.30;;;;;;5045086;28;919;-68
2023/09/06 11:17:46;;;;;;;;;;;21.30;74.40;;;;;;5050595;28;899;-68
2023/09/06 11:20:12;;;;;;;;;;;21.30;74.30;;;;;;5051192;28;1376;-68
2023/09/06 11:22:46;;;;;;;;;;;21.30;74.30;;;;;;5045565;28;1902;-68
2023/09/06 11:25:31;;;;;;;;;;;21.30;74.40;;;;;;5043332;28;1098;-68
2023/09/06 11:28:02;;;;;;;;;;;21.30;74.30;;;;;;5043424;28;1365;-68
2023/09/06 11:30:32;;;;;;;;;;;21.30;74.40;;;;;;5044153;28;1508;-69
2023/09/06 11:32:57;;;;;;;;;;;21.30;74.40;;;;;;5055386;28;1405;-68
2023/09/06 11:35:26;;;;;;;;;;;21.30;74.30;;;;;;5043095;28;880;-68
2023/09/06 11:37:52;;;;;;;;;;;21.30;74.40;;;;;;5042479;28;840;-68
2023/09/06 11:40:20;;;;;;;;;;;21.30;74.40;;;;;;5042991;28;855;-68
2023/09/06 11:42:49;;;;;;;;;;;21.30;74.30;;;;;;5042350;28;1906;-68
2023/09/06 11:45:17;;;;;;;;;;;21.30;74.40;;;;;;5044443;28;891;-68
2023/09/06 11:47:44;;;;;;;;;;;21.30;74.40;;;;;;5050705;28;913;-69
2023/09/06 11:50:12;;;;;;;;;;;21.30;74.40;;;;;;5042338;28;815;-68
2023/09/06 11:52:39;;;;;;;;;;;21.30;75.10;;;;;;5050545;28;1342;-68
2023/09/06 11:55:05;;;;;;;;;;;21.30;74.30;;;;;;5040907;28;892;-68
2023/09/06 11:57:31;;;;;;;;;;;21.30;74.30;;;;;;5050837;28;925;-68
2023/09/06 11:59:57;;;;;;;;;;;21.30;74.30;;;;;;5045159;28;810;-68
2023/09/06 12:02:26;;;;;;;;;;;21.30;74.30;;;;;;5040903;28;1987;-68
2023/09/06 12:04:57;;;;;;;;;;;21.30;74.30;;;;;;5049235;28;1206;-68
2023/09/06 12:07:23;;;;;;;;;;;21.30;74.30;;;;;;5049035;28;1216;-68
2023/09/06 12:09:49;;;;;;;;;;;21.30;74.30;;;;;;5046535;28;1507;-68
2023/09/06 12:12:17;;;;;;;;;;;21.30;74.30;;;;;;5048248;28;1504;-68
2023/09/06 12:14:43;;;;;;;;;;;21.30;74.30;;;;;;5050126;28;1513;-68
2023/09/06 12:17:08;;;;;;;;;;;21.30;74.30;;;;;;5045327;28;1522;-68
2023/09/06 12:19:34;;;;;;;;;;;21.30;74.30;;;;;;5049053;28;1343;-68
2023/09/06 12:22:01;;;;;;;;;;;21.30;74.30;;;;;;5049806;28;1979;-68
2023/09/06 12:24:26;;;;;;;;;;;21.30;74.30;;;;;;5049355;28;1398;-68
2023/09/06 12:26:52;;;;;;;;;;;21.30;74.30;;;;;;5050349;28;875;-68
2023/09/06 12:29:17;;;;;;;;;;;21.30;74.30;;;;;;5049454;28;857;-68
2023/09/06 12:31:43;;;;;;;;;;;21.30;74.30;;;;;;5050301;28;1227;-68
2023/09/06 12:34:08;;;;;;;;;;;21.30;74.30;;;;;;5049927;28;902;-68
2023/09/06 12:36:33;;;;;;;;;;;21.30;75.00;;;;;;5049908;28;1244;-68
2023/09/06 12:38:59;;;;;;;;;;;21.30;74.30;;;;;;5048008;28;1405;-68
2023/09/06 12:41:24;;;;;;;;;;;21.30;74.30;;;;;;5048321;28;1344;-68
2023/09/06 12:43:50;;;;;;;;;;;21.30;74.30;;;;;;5049726;28;1963;-68
2023/09/06 12:46:18;;;;;;;;;;;21.30;74.30;;;;;;5050018;28;1049;-69
2023/09/06 12:48:44;;;;;;;;;;;21.30;74.30;;;;;;5048432;28;840;-69
2023/09/06 12:51:10;;;;;;;;;;;21.30;74.30;;;;;;5049881;28;1214;-69
2023/09/06 12:53:36;;;;;;;;;;;21.30;74.30;;;;;;5050744;28;785;-69
2023/09/06 12:56:02;;;;;;;;;;;21.30;74.30;;;;;;5051207;28;875;-69
2023/09/06 12:58:27;;;;;;;;;;;21.30;74.30;;;;;;5048832;28;981;-69
2023/09/06 13:00:54;;;;;;;;;;;21.30;74.30;;;;;;5037877;28;1283;-68
2023/09/06 13:03:20;;;;;;;;;;;21.30;74.30;;;;;;5049405;28;1959;-68
2023/09/06 13:05:48;;;;;;;;;;;21.30;74.30;;;;;;5049591;28;952;-68
2023/09/06 13:08:14;;;;;;;;;;;21.30;74.20;;;;;;5049233;28;884;-68
2023/09/06 13:10:39;;;;;;;;;;;21.30;74.20;;;;;;5041597;28;1444;-69
2023/09/06 13:13:05;;;;;;;;;;;21.30;74.20;;;;;;5049593;28;847;-68
2023/09/06 13:15:31;;;;;;;;;;;21.30;74.30;;;;;;5049077;28;987;-68
2023/09/06 13:17:57;;;;;;;;;;;21.30;74.20;;;;;;5041285;28;916;-68
2023/09/06 13:20:22;;;;;;;;;;;21.30;74.20;;;;;;5049527;28;1254;-69
2023/09/06 13:22:48;;;;;;;;;;;21.30;74.30;;;;;;5049633;28;1917;-68
2023/09/06 13:25:13;;;;;;;;;;;21.30;74.20;;;;;;5052475;28;1022;-68
2023/09/06 13:27:38;;;;;;;;;;;21.30;74.20;;;;;;5053347;28;1357;-68
2023/09/06 13:30:04;;;;;;;;;;;21.30;74.20;;;;;;5053196;28;808;-67
2023/09/06 13:32:30;;;;;;;;;;;21.30;74.20;;;;;;5046404;28;1280;-68
2023/09/06 13:34:55;;;;;;;;;;;21.30;74.20;;;;;;5053450;28;994;-67
2023/09/06 13:37:21;;;;;;;;;;;21.30;74.20;;;;;;5048929;28;1015;-68
2023/09/06 13:39:47;;;;;;;;;;;21.30;74.20;;;;;;5052581;28;1356;-69
2023/09/06 13:42:12;;;;;;;;;;;21.30;74.20;;;;;;5051132;28;1894;-67
2023/09/06 13:44:38;;;;;;;;;;;21.30;74.20;;;;;;5052193;28;1246;-69
2023/09/06 13:47:04;;;;;;;;;;;21.30;74.20;;;;;;5053047;28;1369;-69
2023/09/06 13:49:29;;;;;;;;;;;21.30;74.20;;;;;;5051756;28;1718;-70
2023/09/06 13:51:55;;;;;;;;;;;21.30;74.20;;;;;;5051799;28;1320;-69
2023/09/06 13:54:20;;;;;;;;;;;21.30;74.20;;;;;;5052707;28;1294;-69
2023/09/06 13:56:49;;;;;;;;;;;21.30;74.20;;;;;;5053010;28;1362;-68
2023/09/06 13:59:18;;;;;;;;;;;21.30;74.20;;;;;;5043743;28;871;-68
2023/09/06 14:01:43;;;;;;;;;;;21.30;74.20;;;;;;5053140;28;1263;-68
2023/09/06 14:04:09;;;;;;;;;;;21.30;74.20;;;;;;5053820;28;1973;-68
2023/09/06 14:06:34;;;;;;;;;;;21.30;74.20;;;;;;5053017;28;900;-68
2023/09/06 14:09:00;;;;;;;;;;;21.30;74.20;;;;;;5051486;28;868;-68
2023/09/06 14:11:25;;;;;;;;;;;21.30;74.20;;;;;;5043522;28;1370;-68
2023/09/06 14:13:51;;;;;;;;;;;21.30;74.20;;;;;;5052467;28;828;-68
2023/09/06 14:16:16;;;;;;;;;;;21.30;74.20;;;;;;5047020;28;852;-68
2023/09/06 14:18:42;;;;;;;;;;;21.30;74.20;;;;;;5051544;28;1351;-68
2023/09/06 14:21:07;;;;;;;;;;;21.30;74.20;;;;;;5052405;28;1353;-67
2023/09/06 14:23:33;;;;;;;;;;;21.30;74.20;;;;;;5052307;28;1906;-68
2023/09/06 14:25:58;;;;;;;;;;;21.30;74.20;;;;;;5052180;28;846;-68
2023/09/06 14:28:24;;;;;;;;;;;21.30;74.20;;;;;;5051702;28;1423;-68
2023/09/06 14:30:49;;;;;;;;;;;21.30;74.20;;;;;;5052295;28;1319;-68
2023/09/06 14:33:15;;;;;;;;;;;21.30;74.20;;;;;;5051953;28;1020;-68
2023/09/06 14:35:41;;;;;;;;;;;21.30;74.20;;;;;;5048926;28;881;-68